sensor_id;sensor_type;location;lat;lon;timestamp;P1;durP1;ratioP1;P2;durP2;ratioP2
9473;SDS011;8865;47.636;7.692;2023-04-15T00:01:27;4.77;;;2.00;;
9473;SDS011;8865;47.636;7.692;2023-04-15T00:03:53;4.60;;;1.93;;
9473;SDS011;8865;47.636;7.692;2023-04-15T00:06:20;3.27;;;1.77;;
9473;SDS011;8865;47.636;7.692;2023-04-15T00:08:47;4.40;;;1.90;;
9473;SDS011;8865;47.636;7.692;2023-04-15T00:11:15;2.77;;;1.60;;
9473;SDS011;8865;47.636;7.692;2023-04-15T00:13:42;3.03;;;1.87;;
9473;SDS011;8865;47.636;7.692;2023-04-15T00:16:09;2.70;;;1.60;;
9473;SDS011;8865;47.636;7.692;2023-04-15T00:18:36;4.53;;;2.10;;
9473;SDS011;8865;47.636;7.692;2023-04-15T00:21:02;2.43;;;1.50;;
9473;SDS011;8865;47.636;7.692;2023-04-15T00:23:29;2.83;;;1.50;;
9473;SDS011;8865;47.636;7.692;2023-04-15T00:25:56;2.90;;;1.67;;
9473;SDS011;8865;47.636;7.692;2023-04-15T00:28:21;2.53;;;1.50;;
9473;SDS011;8865;47.636;7.692;2023-04-15T00:30:48;4.40;;;1.60;;
9473;SDS011;8865;47.636;7.692;2023-04-15T00:33:13;3.67;;;2.03;;
9473;SDS011;8865;47.636;7.692;2023-04-15T00:35:41;1.90;;;1.33;;
9473;SDS011;8865;47.636;7.692;2023-04-15T00:38:07;4.37;;;1.90;;
9473;SDS011;8865;47.636;7.692;2023-04-15T00:40:33;4.10;;;1.60;;
9473;SDS011;8865;47.636;7.692;2023-04-15T00:43:00;3.23;;;1.40;;
9473;SDS011;8865;47.636;7.692;2023-04-15T00:45:26;4.40;;;1.83;;
9473;SDS011;8865;47.636;7.692;2023-04-15T00:47:53;3.97;;;1.90;;
9473;SDS011;8865;47.636;7.692;2023-04-15T00:50:20;3.47;;;1.70;;
9473;SDS011;8865;47.636;7.692;2023-04-15T00:52:46;5.47;;;1.70;;
9473;SDS011;8865;47.636;7.692;2023-04-15T00:55:12;2.83;;;1.50;;
9473;SDS011;8865;47.636;7.692;2023-04-15T00:57:38;3.57;;;1.63;;
9473;SDS011;8865;47.636;7.692;2023-04-15T01:00:05;3.97;;;1.70;;
9473;SDS011;8865;47.636;7.692;2023-04-15T01:02:36;2.67;;;1.60;;
9473;SDS011;8865;47.636;7.692;2023-04-15T01:05:02;2.73;;;1.50;;
9473;SDS011;8865;47.636;7.692;2023-04-15T01:07:29;2.07;;;1.47;;
9473;SDS011;8865;47.636;7.692;2023-04-15T01:09:56;3.53;;;1.63;;
9473;SDS011;8865;47.636;7.692;2023-04-15T01:12:23;3.37;;;1.97;;
9473;SDS011;8865;47.636;7.692;2023-04-15T01:14:52;4.13;;;1.67;;
9473;SDS011;8865;47.636;7.692;2023-04-15T01:17:19;2.43;;;1.20;;
9473;SDS011;8865;47.636;7.692;2023-04-15T01:19:45;3.73;;;1.57;;
9473;SDS011;8865;47.636;7.692;2023-04-15T01:22:11;4.67;;;1.57;;
9473;SDS011;8865;47.636;7.692;2023-04-15T01:24:37;2.97;;;1.40;;
9473;SDS011;8865;47.636;7.692;2023-04-15T01:27:04;4.63;;;1.30;;
9473;SDS011;8865;47.636;7.692;2023-04-15T01:29:35;2.53;;;1.30;;
9473;SDS011;8865;47.636;7.692;2023-04-15T01:32:02;3.07;;;1.43;;
9473;SDS011;8865;47.636;7.692;2023-04-15T01:34:29;4.30;;;1.47;;
9473;SDS011;8865;47.636;7.692;2023-04-15T01:36:55;1.77;;;1.40;;
9473;SDS011;8865;47.636;7.692;2023-04-15T01:39:21;2.83;;;1.60;;
9473;SDS011;8865;47.636;7.692;2023-04-15T01:41:47;3.83;;;1.60;;
9473;SDS011;8865;47.636;7.692;2023-04-15T01:44:13;3.40;;;1.50;;
9473;SDS011;8865;47.636;7.692;2023-04-15T01:46:39;2.90;;;1.33;;
9473;SDS011;8865;47.636;7.692;2023-04-15T01:49:05;2.97;;;1.30;;
9473;SDS011;8865;47.636;7.692;2023-04-15T01:51:32;2.60;;;1.37;;
9473;SDS011;8865;47.636;7.692;2023-04-15T01:53:58;2.50;;;1.30;;
9473;SDS011;8865;47.636;7.692;2023-04-15T01:56:24;2.10;;;1.20;;
9473;SDS011;8865;47.636;7.692;2023-04-15T01:58:51;3.57;;;1.50;;
9473;SDS011;8865;47.636;7.692;2023-04-15T02:01:17;2.20;;;1.20;;
9473;SDS011;8865;47.636;7.692;2023-04-15T02:03:46;2.90;;;1.30;;
9473;SDS011;8865;47.636;7.692;2023-04-15T02:06:12;3.67;;;1.30;;
9473;SDS011;8865;47.636;7.692;2023-04-15T02:08:39;2.83;;;1.33;;
9473;SDS011;8865;47.636;7.692;2023-04-15T02:11:05;2.67;;;1.10;;
9473;SDS011;8865;47.636;7.692;2023-04-15T02:13:31;1.53;;;1.20;;
9473;SDS011;8865;47.636;7.692;2023-04-15T02:15:57;2.53;;;1.33;;
9473;SDS011;8865;47.636;7.692;2023-04-15T02:18:24;6.70;;;1.70;;
9473;SDS011;8865;47.636;7.692;2023-04-15T02:20:50;2.67;;;1.20;;
9473;SDS011;8865;47.636;7.692;2023-04-15T02:23:17;1.53;;;1.10;;
9473;SDS011;8865;47.636;7.692;2023-04-15T02:25:43;1.50;;;1.20;;
9473;SDS011;8865;47.636;7.692;2023-04-15T02:28:09;2.67;;;1.40;;
9473;SDS011;8865;47.636;7.692;2023-04-15T02:30:35;3.33;;;1.40;;
9473;SDS011;8865;47.636;7.692;2023-04-15T02:33:01;4.33;;;1.60;;
9473;SDS011;8865;47.636;7.692;2023-04-15T02:35:28;3.63;;;1.27;;
9473;SDS011;8865;47.636;7.692;2023-04-15T02:37:54;2.87;;;1.30;;
9473;SDS011;8865;47.636;7.692;2023-04-15T02:40:20;1.87;;;1.13;;
9473;SDS011;8865;47.636;7.692;2023-04-15T02:42:46;2.13;;;1.20;;
9473;SDS011;8865;47.636;7.692;2023-04-15T02:45:12;2.80;;;1.10;;
9473;SDS011;8865;47.636;7.692;2023-04-15T02:47:38;4.27;;;1.57;;
9473;SDS011;8865;47.636;7.692;2023-04-15T02:50:09;2.83;;;1.17;;
9473;SDS011;8865;47.636;7.692;2023-04-15T02:52:39;4.00;;;1.33;;
9473;SDS011;8865;47.636;7.692;2023-04-15T02:55:09;3.80;;;1.30;;
9473;SDS011;8865;47.636;7.692;2023-04-15T02:57:35;3.13;;;1.10;;
9473;SDS011;8865;47.636;7.692;2023-04-15T03:00:04;3.47;;;1.40;;
9473;SDS011;8865;47.636;7.692;2023-04-15T03:02:34;1.87;;;1.20;;
9473;SDS011;8865;47.636;7.692;2023-04-15T03:05:01;2.83;;;1.30;;
9473;SDS011;8865;47.636;7.692;2023-04-15T03:07:27;3.47;;;1.37;;
9473;SDS011;8865;47.636;7.692;2023-04-15T03:09:53;2.87;;;1.43;;
9473;SDS011;8865;47.636;7.692;2023-04-15T03:12:19;3.30;;;1.43;;
9473;SDS011;8865;47.636;7.692;2023-04-15T03:14:46;5.43;;;1.60;;
9473;SDS011;8865;47.636;7.692;2023-04-15T03:17:12;3.37;;;1.20;;
9473;SDS011;8865;47.636;7.692;2023-04-15T03:19:38;2.00;;;1.27;;
9473;SDS011;8865;47.636;7.692;2023-04-15T03:22:04;3.03;;;1.27;;
9473;SDS011;8865;47.636;7.692;2023-04-15T03:24:30;1.43;;;1.23;;
9473;SDS011;8865;47.636;7.692;2023-04-15T03:26:56;3.63;;;1.50;;
9473;SDS011;8865;47.636;7.692;2023-04-15T03:29:22;2.17;;;1.23;;
9473;SDS011;8865;47.636;7.692;2023-04-15T03:31:48;2.73;;;1.37;;
9473;SDS011;8865;47.636;7.692;2023-04-15T03:34:14;2.93;;;1.27;;
9473;SDS011;8865;47.636;7.692;2023-04-15T03:36:40;3.27;;;0.90;;
9473;SDS011;8865;47.636;7.692;2023-04-15T03:39:06;1.10;;;0.97;;
9473;SDS011;8865;47.636;7.692;2023-04-15T03:41:32;3.20;;;1.10;;
9473;SDS011;8865;47.636;7.692;2023-04-15T03:43:58;3.17;;;1.10;;
9473;SDS011;8865;47.636;7.692;2023-04-15T03:49:25;4.23;;;1.33;;
9473;SDS011;8865;47.636;7.692;2023-04-15T03:51:51;1.90;;;1.10;;
9473;SDS011;8865;47.636;7.692;2023-04-15T03:54:17;2.00;;;1.33;;
9473;SDS011;8865;47.636;7.692;2023-04-15T03:56:43;2.40;;;1.40;;
9473;SDS011;8865;47.636;7.692;2023-04-15T03:59:09;2.57;;;1.53;;
9473;SDS011;8865;47.636;7.692;2023-04-15T04:01:35;3.63;;;1.33;;
9473;SDS011;8865;47.636;7.692;2023-04-15T04:04:01;4.13;;;1.40;;
9473;SDS011;8865;47.636;7.692;2023-04-15T04:06:27;3.37;;;1.13;;
9473;SDS011;8865;47.636;7.692;2023-04-15T04:08:53;4.37;;;1.73;;
9473;SDS011;8865;47.636;7.692;2023-04-15T04:11:20;2.40;;;1.23;;
9473;SDS011;8865;47.636;7.692;2023-04-15T04:13:46;3.33;;;1.50;;
9473;SDS011;8865;47.636;7.692;2023-04-15T04:16:12;2.60;;;1.30;;
9473;SDS011;8865;47.636;7.692;2023-04-15T04:18:38;4.27;;;1.50;;
9473;SDS011;8865;47.636;7.692;2023-04-15T04:21:04;2.63;;;1.50;;
9473;SDS011;8865;47.636;7.692;2023-04-15T04:23:30;2.20;;;1.17;;
9473;SDS011;8865;47.636;7.692;2023-04-15T04:25:56;2.00;;;1.20;;
9473;SDS011;8865;47.636;7.692;2023-04-15T04:28:22;3.03;;;1.43;;
9473;SDS011;8865;47.636;7.692;2023-04-15T04:30:48;1.40;;;1.10;;
9473;SDS011;8865;47.636;7.692;2023-04-15T04:33:15;1.90;;;1.10;;
9473;SDS011;8865;47.636;7.692;2023-04-15T04:35:41;3.17;;;1.33;;
9473;SDS011;8865;47.636;7.692;2023-04-15T04:38:07;5.83;;;1.17;;
9473;SDS011;8865;47.636;7.692;2023-04-15T04:40:33;2.33;;;1.47;;
9473;SDS011;8865;47.636;7.692;2023-04-15T04:43:00;3.10;;;1.37;;
9473;SDS011;8865;47.636;7.692;2023-04-15T04:45:26;3.20;;;1.47;;
9473;SDS011;8865;47.636;7.692;2023-04-15T04:47:52;4.97;;;1.43;;
9473;SDS011;8865;47.636;7.692;2023-04-15T04:50:18;3.13;;;1.37;;
9473;SDS011;8865;47.636;7.692;2023-04-15T04:52:44;3.10;;;1.40;;
9473;SDS011;8865;47.636;7.692;2023-04-15T04:55:10;2.53;;;1.40;;
9473;SDS011;8865;47.636;7.692;2023-04-15T04:57:36;1.50;;;1.10;;
9473;SDS011;8865;47.636;7.692;2023-04-15T05:00:04;3.73;;;1.20;;
9473;SDS011;8865;47.636;7.692;2023-04-15T05:02:32;2.83;;;1.50;;
9473;SDS011;8865;47.636;7.692;2023-04-15T05:04:59;3.73;;;1.40;;
9473;SDS011;8865;47.636;7.692;2023-04-15T05:07:26;2.23;;;1.30;;
9473;SDS011;8865;47.636;7.692;2023-04-15T05:09:52;3.20;;;1.67;;
9473;SDS011;8865;47.636;7.692;2023-04-15T05:12:18;3.97;;;1.60;;
9473;SDS011;8865;47.636;7.692;2023-04-15T05:14:44;2.13;;;1.30;;
9473;SDS011;8865;47.636;7.692;2023-04-15T05:17:11;3.07;;;1.40;;
9473;SDS011;8865;47.636;7.692;2023-04-15T05:19:37;2.90;;;1.10;;
9473;SDS011;8865;47.636;7.692;2023-04-15T05:22:03;3.93;;;1.30;;
9473;SDS011;8865;47.636;7.692;2023-04-15T05:24:29;5.73;;;1.93;;
9473;SDS011;8865;47.636;7.692;2023-04-15T05:26:55;3.10;;;1.70;;
9473;SDS011;8865;47.636;7.692;2023-04-15T05:29:21;4.53;;;1.73;;
9473;SDS011;8865;47.636;7.692;2023-04-15T05:31:47;2.80;;;1.60;;
9473;SDS011;8865;47.636;7.692;2023-04-15T05:34:13;3.30;;;1.40;;
9473;SDS011;8865;47.636;7.692;2023-04-15T05:36:41;3.30;;;1.67;;
9473;SDS011;8865;47.636;7.692;2023-04-15T05:39:07;5.97;;;1.90;;
9473;SDS011;8865;47.636;7.692;2023-04-15T05:41:33;2.80;;;1.70;;
9473;SDS011;8865;47.636;7.692;2023-04-15T05:43:59;5.93;;;1.70;;
9473;SDS011;8865;47.636;7.692;2023-04-15T05:46:25;2.93;;;1.90;;
9473;SDS011;8865;47.636;7.692;2023-04-15T05:48:52;3.33;;;1.70;;
9473;SDS011;8865;47.636;7.692;2023-04-15T05:51:18;6.03;;;2.07;;
9473;SDS011;8865;47.636;7.692;2023-04-15T05:53:44;4.23;;;1.60;;
9473;SDS011;8865;47.636;7.692;2023-04-15T05:56:10;3.20;;;1.70;;
9473;SDS011;8865;47.636;7.692;2023-04-15T05:58:36;3.17;;;1.70;;
9473;SDS011;8865;47.636;7.692;2023-04-15T06:01:02;3.17;;;1.63;;
9473;SDS011;8865;47.636;7.692;2023-04-15T06:03:28;5.03;;;1.90;;
9473;SDS011;8865;47.636;7.692;2023-04-15T06:05:55;2.73;;;1.80;;
9473;SDS011;8865;47.636;7.692;2023-04-15T06:08:21;4.77;;;1.90;;
9473;SDS011;8865;47.636;7.692;2023-04-15T06:10:47;3.60;;;2.10;;
9473;SDS011;8865;47.636;7.692;2023-04-15T06:13:12;3.97;;;2.00;;
9473;SDS011;8865;47.636;7.692;2023-04-15T06:15:38;3.40;;;1.50;;
9473;SDS011;8865;47.636;7.692;2023-04-15T06:18:04;4.80;;;1.77;;
9473;SDS011;8865;47.636;7.692;2023-04-15T06:20:30;4.93;;;2.40;;
9473;SDS011;8865;47.636;7.692;2023-04-15T06:22:57;3.53;;;1.93;;
9473;SDS011;8865;47.636;7.692;2023-04-15T06:25:23;3.63;;;2.10;;
9473;SDS011;8865;47.636;7.692;2023-04-15T06:27:49;4.63;;;1.97;;
9473;SDS011;8865;47.636;7.692;2023-04-15T06:30:15;5.60;;;2.03;;
9473;SDS011;8865;47.636;7.692;2023-04-15T06:32:41;3.30;;;1.90;;
9473;SDS011;8865;47.636;7.692;2023-04-15T06:35:07;4.00;;;1.80;;
9473;SDS011;8865;47.636;7.692;2023-04-15T06:37:34;4.70;;;2.27;;
9473;SDS011;8865;47.636;7.692;2023-04-15T06:40:00;3.63;;;2.30;;
9473;SDS011;8865;47.636;7.692;2023-04-15T06:42:26;3.23;;;2.30;;
9473;SDS011;8865;47.636;7.692;2023-04-15T06:44:52;5.27;;;1.93;;
9473;SDS011;8865;47.636;7.692;2023-04-15T06:47:18;3.10;;;1.90;;
9473;SDS011;8865;47.636;7.692;2023-04-15T06:49:44;4.03;;;2.13;;
9473;SDS011;8865;47.636;7.692;2023-04-15T06:52:10;3.53;;;2.00;;
9473;SDS011;8865;47.636;7.692;2023-04-15T06:54:37;3.23;;;1.90;;
9473;SDS011;8865;47.636;7.692;2023-04-15T06:57:03;3.90;;;2.00;;
9473;SDS011;8865;47.636;7.692;2023-04-15T06:59:29;4.30;;;1.60;;
9473;SDS011;8865;47.636;7.692;2023-04-15T07:01:55;2.17;;;1.60;;
9473;SDS011;8865;47.636;7.692;2023-04-15T07:04:21;4.03;;;1.60;;
9473;SDS011;8865;47.636;7.692;2023-04-15T07:06:47;2.97;;;1.40;;
9473;SDS011;8865;47.636;7.692;2023-04-15T07:09:13;4.17;;;1.90;;
9473;SDS011;8865;47.636;7.692;2023-04-15T07:11:39;3.30;;;1.80;;
9473;SDS011;8865;47.636;7.692;2023-04-15T07:14:05;3.07;;;2.13;;
9473;SDS011;8865;47.636;7.692;2023-04-15T07:16:32;5.83;;;2.80;;
9473;SDS011;8865;47.636;7.692;2023-04-15T07:18:57;4.33;;;1.93;;
9473;SDS011;8865;47.636;7.692;2023-04-15T07:21:24;2.47;;;1.80;;
9473;SDS011;8865;47.636;7.692;2023-04-15T07:23:50;5.40;;;1.97;;
9473;SDS011;8865;47.636;7.692;2023-04-15T07:26:16;5.07;;;1.90;;
9473;SDS011;8865;47.636;7.692;2023-04-15T07:28:42;4.50;;;2.10;;
9473;SDS011;8865;47.636;7.692;2023-04-15T07:31:08;2.77;;;1.67;;
9473;SDS011;8865;47.636;7.692;2023-04-15T07:33:34;3.07;;;1.70;;
9473;SDS011;8865;47.636;7.692;2023-04-15T07:36:00;2.07;;;1.60;;
9473;SDS011;8865;47.636;7.692;2023-04-15T07:38:26;3.13;;;1.70;;
9473;SDS011;8865;47.636;7.692;2023-04-15T07:40:52;4.40;;;1.87;;
9473;SDS011;8865;47.636;7.692;2023-04-15T07:43:18;2.80;;;1.70;;
9473;SDS011;8865;47.636;7.692;2023-04-15T07:45:45;3.80;;;2.07;;
9473;SDS011;8865;47.636;7.692;2023-04-15T07:48:11;3.70;;;1.63;;
9473;SDS011;8865;47.636;7.692;2023-04-15T07:50:38;4.07;;;2.23;;
9473;SDS011;8865;47.636;7.692;2023-04-15T07:53:04;3.37;;;2.03;;
9473;SDS011;8865;47.636;7.692;2023-04-15T07:55:31;3.63;;;2.00;;
9473;SDS011;8865;47.636;7.692;2023-04-15T07:57:57;5.13;;;2.13;;
9473;SDS011;8865;47.636;7.692;2023-04-15T08:00:23;3.30;;;2.27;;
9473;SDS011;8865;47.636;7.692;2023-04-15T08:02:49;3.80;;;2.20;;
9473;SDS011;8865;47.636;7.692;2023-04-15T08:05:17;2.60;;;1.80;;
9473;SDS011;8865;47.636;7.692;2023-04-15T08:07:43;4.43;;;2.30;;
9473;SDS011;8865;47.636;7.692;2023-04-15T08:10:09;2.97;;;2.13;;
9473;SDS011;8865;47.636;7.692;2023-04-15T08:12:36;4.00;;;2.20;;
9473;SDS011;8865;47.636;7.692;2023-04-15T08:15:03;2.67;;;2.00;;
9473;SDS011;8865;47.636;7.692;2023-04-15T08:17:29;4.03;;;2.20;;
9473;SDS011;8865;47.636;7.692;2023-04-15T08:19:55;4.30;;;2.00;;
9473;SDS011;8865;47.636;7.692;2023-04-15T08:22:21;3.37;;;1.80;;
9473;SDS011;8865;47.636;7.692;2023-04-15T08:24:48;3.13;;;1.93;;
9473;SDS011;8865;47.636;7.692;2023-04-15T08:27:14;3.30;;;1.73;;
9473;SDS011;8865;47.636;7.692;2023-04-15T08:29:40;3.90;;;2.00;;
9473;SDS011;8865;47.636;7.692;2023-04-15T08:32:06;2.70;;;1.80;;
9473;SDS011;8865;47.636;7.692;2023-04-15T08:34:32;4.13;;;2.10;;
9473;SDS011;8865;47.636;7.692;2023-04-15T08:36:59;2.70;;;2.00;;
9473;SDS011;8865;47.636;7.692;2023-04-15T08:39:25;3.10;;;2.00;;
9473;SDS011;8865;47.636;7.692;2023-04-15T08:41:55;3.53;;;2.00;;
9473;SDS011;8865;47.636;7.692;2023-04-15T08:44:28;2.50;;;1.93;;
9473;SDS011;8865;47.636;7.692;2023-04-15T08:46:56;2.83;;;1.77;;
9473;SDS011;8865;47.636;7.692;2023-04-15T08:49:26;1.93;;;1.50;;
9473;SDS011;8865;47.636;7.692;2023-04-15T08:51:54;2.53;;;1.60;;
9473;SDS011;8865;47.636;7.692;2023-04-15T08:54:22;3.53;;;1.70;;
9473;SDS011;8865;47.636;7.692;2023-04-15T08:56:49;2.40;;;1.30;;
9473;SDS011;8865;47.636;7.692;2023-04-15T08:59:15;2.00;;;1.63;;
9473;SDS011;8865;47.636;7.692;2023-04-15T09:01:42;1.60;;;1.40;;
9473;SDS011;8865;47.636;7.692;2023-04-15T09:04:08;2.27;;;1.60;;
9473;SDS011;8865;47.636;7.692;2023-04-15T09:06:37;1.30;;;1.20;;
9473;SDS011;8865;47.636;7.692;2023-04-15T09:09:04;2.53;;;1.40;;
9473;SDS011;8865;47.636;7.692;2023-04-15T09:11:30;1.20;;;1.10;;
9473;SDS011;8865;47.636;7.692;2023-04-15T09:13:56;1.30;;;1.10;;
9473;SDS011;8865;47.636;7.692;2023-04-15T09:16:22;1.63;;;1.30;;
9473;SDS011;8865;47.636;7.692;2023-04-15T09:18:49;1.20;;;1.10;;
9473;SDS011;8865;47.636;7.692;2023-04-15T09:21:15;1.10;;;1.00;;
9473;SDS011;8865;47.636;7.692;2023-04-15T09:23:58;1.70;;;1.10;;
9473;SDS011;8865;47.636;7.692;2023-04-15T09:26:32;1.07;;;0.70;;
9473;SDS011;8865;47.636;7.692;2023-04-15T09:29:07;1.50;;;0.80;;
9473;SDS011;8865;47.636;7.692;2023-04-15T09:31:35;0.97;;;0.83;;
9473;SDS011;8865;47.636;7.692;2023-04-15T09:34:01;1.17;;;0.87;;
9473;SDS011;8865;47.636;7.692;2023-04-15T09:36:27;0.80;;;0.80;;
9473;SDS011;8865;47.636;7.692;2023-04-15T09:38:55;1.00;;;0.90;;
9473;SDS011;8865;47.636;7.692;2023-04-15T09:41:23;1.40;;;0.90;;
9473;SDS011;8865;47.636;7.692;2023-04-15T09:43:49;2.87;;;1.10;;
9473;SDS011;8865;47.636;7.692;2023-04-15T09:46:15;2.80;;;1.07;;
9473;SDS011;8865;47.636;7.692;2023-04-15T09:48:41;1.87;;;1.20;;
9473;SDS011;8865;47.636;7.692;2023-04-15T09:51:07;2.93;;;1.00;;
9473;SDS011;8865;47.636;7.692;2023-04-15T09:53:35;2.10;;;1.23;;
9473;SDS011;8865;47.636;7.692;2023-04-15T09:56:01;1.53;;;1.10;;
9473;SDS011;8865;47.636;7.692;2023-04-15T09:58:28;1.70;;;1.20;;
9473;SDS011;8865;47.636;7.692;2023-04-15T10:00:56;2.43;;;1.20;;
9473;SDS011;8865;47.636;7.692;2023-04-15T10:03:30;2.00;;;1.33;;
9473;SDS011;8865;47.636;7.692;2023-04-15T10:05:59;2.07;;;1.30;;
9473;SDS011;8865;47.636;7.692;2023-04-15T10:08:27;2.87;;;1.47;;
9473;SDS011;8865;47.636;7.692;2023-04-15T10:10:54;2.70;;;1.20;;
9473;SDS011;8865;47.636;7.692;2023-04-15T10:13:23;3.40;;;1.20;;
9473;SDS011;8865;47.636;7.692;2023-04-15T10:15:50;2.40;;;1.00;;
9473;SDS011;8865;47.636;7.692;2023-04-15T10:18:22;3.33;;;1.23;;
9473;SDS011;8865;47.636;7.692;2023-04-15T10:20:51;4.03;;;1.50;;
9473;SDS011;8865;47.636;7.692;2023-04-15T10:23:18;2.83;;;1.50;;
9473;SDS011;8865;47.636;7.692;2023-04-15T10:25:46;2.27;;;1.00;;
9473;SDS011;8865;47.636;7.692;2023-04-15T10:28:14;3.07;;;1.10;;
9473;SDS011;8865;47.636;7.692;2023-04-15T10:30:41;1.37;;;0.87;;
9473;SDS011;8865;47.636;7.692;2023-04-15T10:33:08;3.57;;;1.13;;
9473;SDS011;8865;47.636;7.692;2023-04-15T10:35:36;2.40;;;0.90;;
9473;SDS011;8865;47.636;7.692;2023-04-15T10:38:07;3.20;;;1.40;;
9473;SDS011;8865;47.636;7.692;2023-04-15T10:41:10;1.50;;;1.10;;
9473;SDS011;8865;47.636;7.692;2023-04-15T10:43:38;2.37;;;1.00;;
9473;SDS011;8865;47.636;7.692;2023-04-15T10:46:05;3.10;;;1.20;;
9473;SDS011;8865;47.636;7.692;2023-04-15T10:48:31;2.33;;;1.30;;
9473;SDS011;8865;47.636;7.692;2023-04-15T10:50:59;4.73;;;1.50;;
9473;SDS011;8865;47.636;7.692;2023-04-15T10:53:27;3.00;;;1.20;;
9473;SDS011;8865;47.636;7.692;2023-04-15T10:55:54;1.73;;;0.90;;
9473;SDS011;8865;47.636;7.692;2023-04-15T10:58:22;4.77;;;1.50;;
9473;SDS011;8865;47.636;7.692;2023-04-15T11:00:51;2.53;;;1.20;;
9473;SDS011;8865;47.636;7.692;2023-04-15T11:03:37;3.27;;;1.30;;
9473;SDS011;8865;47.636;7.692;2023-04-15T11:06:05;2.10;;;1.10;;
9473;SDS011;8865;47.636;7.692;2023-04-15T11:11:21;2.13;;;1.20;;
9473;SDS011;8865;47.636;7.692;2023-04-15T11:13:48;2.87;;;1.30;;
9473;SDS011;8865;47.636;7.692;2023-04-15T11:16:15;2.37;;;1.20;;
9473;SDS011;8865;47.636;7.692;2023-04-15T11:18:41;3.03;;;1.30;;
9473;SDS011;8865;47.636;7.692;2023-04-15T11:21:07;2.80;;;1.20;;
9473;SDS011;8865;47.636;7.692;2023-04-15T11:23:38;2.50;;;1.20;;
9473;SDS011;8865;47.636;7.692;2023-04-15T11:26:05;2.07;;;1.30;;
9473;SDS011;8865;47.636;7.692;2023-04-15T11:28:34;2.47;;;1.10;;
9473;SDS011;8865;47.636;7.692;2023-04-15T11:31:05;3.07;;;1.43;;
9473;SDS011;8865;47.636;7.692;2023-04-15T11:33:36;3.27;;;1.13;;
9473;SDS011;8865;47.636;7.692;2023-04-15T11:36:02;1.10;;;0.80;;
9473;SDS011;8865;47.636;7.692;2023-04-15T11:38:29;2.50;;;1.03;;
9473;SDS011;8865;47.636;7.692;2023-04-15T11:40:56;2.37;;;1.23;;
9473;SDS011;8865;47.636;7.692;2023-04-15T11:43:22;1.77;;;0.97;;
9473;SDS011;8865;47.636;7.692;2023-04-15T11:48:22;1.17;;;0.70;;
9473;SDS011;8865;47.636;7.692;2023-04-15T11:50:54;1.10;;;0.70;;
9473;SDS011;8865;47.636;7.692;2023-04-15T11:53:22;1.53;;;1.07;;
9473;SDS011;8865;47.636;7.692;2023-04-15T11:55:50;0.93;;;0.90;;
9473;SDS011;8865;47.636;7.692;2023-04-15T11:58:18;1.23;;;0.80;;
9473;SDS011;8865;47.636;7.692;2023-04-15T12:03:24;2.17;;;1.30;;
9473;SDS011;8865;47.636;7.692;2023-04-15T12:08:47;1.90;;;1.20;;
9473;SDS011;8865;47.636;7.692;2023-04-15T12:11:14;1.23;;;0.93;;
9473;SDS011;8865;47.636;7.692;2023-04-15T12:13:48;0.60;;;0.60;;
9473;SDS011;8865;47.636;7.692;2023-04-15T12:16:16;2.13;;;1.10;;
9473;SDS011;8865;47.636;7.692;2023-04-15T12:18:46;0.90;;;0.63;;
9473;SDS011;8865;47.636;7.692;2023-04-15T12:21:17;1.10;;;0.90;;
9473;SDS011;8865;47.636;7.692;2023-04-15T12:23:53;2.50;;;1.13;;
9473;SDS011;8865;47.636;7.692;2023-04-15T12:28:54;1.80;;;1.10;;
9473;SDS011;8865;47.636;7.692;2023-04-15T12:31:27;1.27;;;0.93;;
9473;SDS011;8865;47.636;7.692;2023-04-15T12:33:56;1.57;;;0.90;;
9473;SDS011;8865;47.636;7.692;2023-04-15T12:36:23;1.53;;;1.10;;
9473;SDS011;8865;47.636;7.692;2023-04-15T12:38:49;1.37;;;0.63;;
9473;SDS011;8865;47.636;7.692;2023-04-15T12:41:15;1.23;;;1.00;;
9473;SDS011;8865;47.636;7.692;2023-04-15T12:43:43;1.37;;;0.77;;
9473;SDS011;8865;47.636;7.692;2023-04-15T12:46:12;2.57;;;1.50;;
9473;SDS011;8865;47.636;7.692;2023-04-15T12:48:39;1.57;;;1.10;;
9473;SDS011;8865;47.636;7.692;2023-04-15T12:51:08;1.60;;;1.00;;
9473;SDS011;8865;47.636;7.692;2023-04-15T12:53:34;1.07;;;0.93;;
9473;SDS011;8865;47.636;7.692;2023-04-15T12:56:00;1.00;;;0.90;;
9473;SDS011;8865;47.636;7.692;2023-04-15T12:58:27;1.03;;;1.03;;
9473;SDS011;8865;47.636;7.692;2023-04-15T13:00:53;0.83;;;0.83;;
9473;SDS011;8865;47.636;7.692;2023-04-15T13:03:19;1.17;;;0.90;;
9473;SDS011;8865;47.636;7.692;2023-04-15T13:05:45;1.50;;;1.07;;
9473;SDS011;8865;47.636;7.692;2023-04-15T13:08:11;0.93;;;0.70;;
9473;SDS011;8865;47.636;7.692;2023-04-15T13:10:37;3.20;;;0.97;;
9473;SDS011;8865;47.636;7.692;2023-04-15T13:13:03;2.27;;;0.90;;
9473;SDS011;8865;47.636;7.692;2023-04-15T13:15:30;1.23;;;0.97;;
9473;SDS011;8865;47.636;7.692;2023-04-15T13:17:56;1.30;;;1.10;;
9473;SDS011;8865;47.636;7.692;2023-04-15T13:20:22;3.33;;;1.10;;
9473;SDS011;8865;47.636;7.692;2023-04-15T13:22:51;1.07;;;0.90;;
9473;SDS011;8865;47.636;7.692;2023-04-15T13:25:18;3.70;;;1.10;;
9473;SDS011;8865;47.636;7.692;2023-04-15T13:27:44;1.40;;;0.90;;
9473;SDS011;8865;47.636;7.692;2023-04-15T13:30:11;1.10;;;0.73;;
9473;SDS011;8865;47.636;7.692;2023-04-15T13:32:37;1.47;;;1.00;;
9473;SDS011;8865;47.636;7.692;2023-04-15T13:35:03;1.60;;;1.00;;
9473;SDS011;8865;47.636;7.692;2023-04-15T13:37:30;3.00;;;1.10;;
9473;SDS011;8865;47.636;7.692;2023-04-15T13:39:56;1.97;;;1.00;;
9473;SDS011;8865;47.636;7.692;2023-04-15T13:42:22;1.50;;;1.00;;
9473;SDS011;8865;47.636;7.692;2023-04-15T13:44:49;1.40;;;0.87;;
9473;SDS011;8865;47.636;7.692;2023-04-15T13:47:18;2.37;;;1.20;;
9473;SDS011;8865;47.636;7.692;2023-04-15T13:49:45;2.13;;;1.30;;
9473;SDS011;8865;47.636;7.692;2023-04-15T13:52:11;1.93;;;1.23;;
9473;SDS011;8865;47.636;7.692;2023-04-15T13:54:37;1.93;;;1.23;;
9473;SDS011;8865;47.636;7.692;2023-04-15T13:57:04;2.33;;;1.30;;
9473;SDS011;8865;47.636;7.692;2023-04-15T13:59:32;1.87;;;1.00;;
9473;SDS011;8865;47.636;7.692;2023-04-15T14:01:59;1.87;;;1.30;;
9473;SDS011;8865;47.636;7.692;2023-04-15T14:04:25;1.80;;;1.20;;
9473;SDS011;8865;47.636;7.692;2023-04-15T14:06:51;2.53;;;1.37;;
9473;SDS011;8865;47.636;7.692;2023-04-15T14:09:17;1.20;;;1.00;;
9473;SDS011;8865;47.636;7.692;2023-04-15T14:11:43;1.73;;;1.33;;
9473;SDS011;8865;47.636;7.692;2023-04-15T14:14:09;1.30;;;1.20;;
9473;SDS011;8865;47.636;7.692;2023-04-15T14:16:35;1.43;;;0.97;;
9473;SDS011;8865;47.636;7.692;2023-04-15T14:19:01;1.57;;;1.30;;
9473;SDS011;8865;47.636;7.692;2023-04-15T14:21:27;2.57;;;1.30;;
9473;SDS011;8865;47.636;7.692;2023-04-15T14:23:54;1.90;;;1.10;;
9473;SDS011;8865;47.636;7.692;2023-04-15T14:26:20;1.63;;;1.30;;
9473;SDS011;8865;47.636;7.692;2023-04-15T14:28:46;1.67;;;1.50;;
9473;SDS011;8865;47.636;7.692;2023-04-15T14:31:13;2.47;;;1.50;;
9473;SDS011;8865;47.636;7.692;2023-04-15T14:33:39;2.60;;;1.80;;
9473;SDS011;8865;47.636;7.692;2023-04-15T14:36:05;1.90;;;1.50;;
9473;SDS011;8865;47.636;7.692;2023-04-15T14:38:35;2.43;;;1.63;;
9473;SDS011;8865;47.636;7.692;2023-04-15T14:41:06;2.57;;;1.70;;
9473;SDS011;8865;47.636;7.692;2023-04-15T14:43:35;2.47;;;1.77;;
9473;SDS011;8865;47.636;7.692;2023-04-15T14:46:01;2.30;;;1.60;;
9473;SDS011;8865;47.636;7.692;2023-04-15T14:48:27;2.73;;;1.37;;
9473;SDS011;8865;47.636;7.692;2023-04-15T14:50:54;3.20;;;2.17;;
9473;SDS011;8865;47.636;7.692;2023-04-15T14:53:20;2.80;;;2.17;;
9473;SDS011;8865;47.636;7.692;2023-04-15T14:55:46;3.33;;;1.90;;
9473;SDS011;8865;47.636;7.692;2023-04-15T14:58:12;1.73;;;1.30;;
9473;SDS011;8865;47.636;7.692;2023-04-15T15:00:39;2.57;;;1.50;;
9473;SDS011;8865;47.636;7.692;2023-04-15T15:03:09;2.40;;;1.27;;
9473;SDS011;8865;47.636;7.692;2023-04-15T15:05:40;3.27;;;1.53;;
9473;SDS011;8865;47.636;7.692;2023-04-15T15:08:07;1.80;;;1.23;;
9473;SDS011;8865;47.636;7.692;2023-04-15T15:10:34;1.80;;;1.10;;
9473;SDS011;8865;47.636;7.692;2023-04-15T15:13:04;1.53;;;1.00;;
9473;SDS011;8865;47.636;7.692;2023-04-15T15:15:32;1.00;;;0.90;;
9473;SDS011;8865;47.636;7.692;2023-04-15T15:17:59;1.77;;;1.20;;
9473;SDS011;8865;47.636;7.692;2023-04-15T15:20:25;1.77;;;1.20;;
9473;SDS011;8865;47.636;7.692;2023-04-15T15:22:51;1.43;;;1.33;;
9473;SDS011;8865;47.636;7.692;2023-04-15T15:25:17;2.47;;;1.13;;
9473;SDS011;8865;47.636;7.692;2023-04-15T15:27:44;1.63;;;1.37;;
9473;SDS011;8865;47.636;7.692;2023-04-15T15:30:10;1.60;;;1.10;;